sensor_id;sensor_type;location;lat;lon;timestamp;P1;durP1;ratioP1;P2;durP2;ratioP2
18999;SDS011;9633;50.980;13.850;2023-05-15T00:00:58;6.17;;;4.77;;
18999;SDS011;9633;50.980;13.850;2023-05-15T00:02:32;4.97;;;4.47;;
18999;SDS011;9633;50.980;13.850;2023-05-15T00:04:06;5.00;;;4.60;;
18999;SDS011;9633;50.980;13.850;2023-05-15T00:05:40;5.30;;;4.80;;
18999;SDS011;9633;50.980;13.850;2023-05-15T00:07:12;4.90;;;4.40;;
18999;SDS011;9633;50.980;13.850;2023-05-15T00:08:45;5.13;;;4.60;;
18999;SDS011;9633;50.980;13.850;2023-05-15T00:10:17;4.80;;;4.30;;
18999;SDS011;9633;50.980;13.850;2023-05-15T00:11:50;5.00;;;4.50;;
18999;SDS011;9633;50.980;13.850;2023-05-15T00:13:23;4.50;;;3.90;;
18999;SDS011;9633;50.980;13.850;2023-05-15T00:14:56;4.77;;;4.37;;
18999;SDS011;9633;50.980;13.850;2023-05-15T00:16:29;6.50;;;4.73;;
18999;SDS011;9633;50.980;13.850;2023-05-15T00:18:02;4.70;;;4.20;;
18999;SDS011;9633;50.980;13.850;2023-05-15T00:19:37;4.93;;;4.43;;
18999;SDS011;9633;50.980;13.850;2023-05-15T00:21:10;4.70;;;4.30;;
18999;SDS011;9633;50.980;13.850;2023-05-15T00:22:43;5.10;;;4.50;;
18999;SDS011;9633;50.980;13.850;2023-05-15T00:24:16;5.03;;;4.47;;
18999;SDS011;9633;50.980;13.850;2023-05-15T00:25:51;4.60;;;4.20;;
18999;SDS011;9633;50.980;13.850;2023-05-15T00:27:23;5.57;;;4.20;;
18999;SDS011;9633;50.980;13.850;2023-05-15T00:28:56;4.20;;;3.80;;
18999;SDS011;9633;50.980;13.850;2023-05-15T00:30:30;4.57;;;4.20;;
18999;SDS011;9633;50.980;13.850;2023-05-15T00:32:03;5.90;;;4.20;;
18999;SDS011;9633;50.980;13.850;2023-05-15T00:33:37;5.87;;;4.30;;
18999;SDS011;9633;50.980;13.850;2023-05-15T00:35:11;5.10;;;4.70;;
18999;SDS011;9633;50.980;13.850;2023-05-15T00:36:44;4.80;;;4.20;;
18999;SDS011;9633;50.980;13.850;2023-05-15T00:38:17;4.80;;;4.30;;
18999;SDS011;9633;50.980;13.850;2023-05-15T00:39:50;4.40;;;4.00;;
18999;SDS011;9633;50.980;13.850;2023-05-15T00:41:24;4.70;;;4.30;;
18999;SDS011;9633;50.980;13.850;2023-05-15T00:42:59;4.90;;;4.50;;
18999;SDS011;9633;50.980;13.850;2023-05-15T00:44:33;7.23;;;4.70;;
18999;SDS011;9633;50.980;13.850;2023-05-15T00:46:07;5.70;;;5.20;;
18999;SDS011;9633;50.980;13.850;2023-05-15T00:47:41;8.43;;;5.20;;
18999;SDS011;9633;50.980;13.850;2023-05-15T00:49:15;5.40;;;4.90;;
18999;SDS011;9633;50.980;13.850;2023-05-15T00:50:54;5.43;;;4.93;;
18999;SDS011;9633;50.980;13.850;2023-05-15T00:52:29;5.23;;;4.73;;
18999;SDS011;9633;50.980;13.850;2023-05-15T00:54:03;5.40;;;4.90;;
18999;SDS011;9633;50.980;13.850;2023-05-15T00:55:37;5.77;;;5.00;;
18999;SDS011;9633;50.980;13.850;2023-05-15T00:57:12;6.30;;;5.70;;
18999;SDS011;9633;50.980;13.850;2023-05-15T00:58:46;7.13;;;5.70;;
18999;SDS011;9633;50.980;13.850;2023-05-15T01:00:21;6.67;;;5.73;;
18999;SDS011;9633;50.980;13.850;2023-05-15T01:01:54;5.80;;;5.30;;
18999;SDS011;9633;50.980;13.850;2023-05-15T01:03:28;5.97;;;5.37;;
18999;SDS011;9633;50.980;13.850;2023-05-15T01:05:04;5.93;;;5.33;;
18999;SDS011;9633;50.980;13.850;2023-05-15T01:06:40;6.20;;;5.60;;
18999;SDS011;9633;50.980;13.850;2023-05-15T01:08:15;6.33;;;5.60;;
18999;SDS011;9633;50.980;13.850;2023-05-15T01:09:54;6.03;;;5.53;;
18999;SDS011;9633;50.980;13.850;2023-05-15T01:11:27;5.83;;;5.30;;
18999;SDS011;9633;50.980;13.850;2023-05-15T01:13:07;5.97;;;5.33;;
18999;SDS011;9633;50.980;13.850;2023-05-15T01:14:40;6.73;;;6.13;;
18999;SDS011;9633;50.980;13.850;2023-05-15T01:16:13;6.93;;;6.20;;
18999;SDS011;9633;50.980;13.850;2023-05-15T01:17:45;6.90;;;6.20;;
18999;SDS011;9633;50.980;13.850;2023-05-15T01:19:19;6.73;;;6.00;;
18999;SDS011;9633;50.980;13.850;2023-05-15T01:21:14;7.03;;;6.33;;
18999;SDS011;9633;50.980;13.850;2023-05-15T01:23:04;7.70;;;6.90;;
18999;SDS011;9633;50.980;13.850;2023-05-15T01:24:48;7.27;;;6.57;;
18999;SDS011;9633;50.980;13.850;2023-05-15T01:26:54;7.33;;;6.43;;
18999;SDS011;9633;50.980;13.850;2023-05-15T01:28:50;6.73;;;6.13;;
18999;SDS011;9633;50.980;13.850;2023-05-15T01:30:31;6.37;;;5.77;;
18999;SDS011;9633;50.980;13.850;2023-05-15T01:32:08;6.97;;;6.27;;
18999;SDS011;9633;50.980;13.850;2023-05-15T01:33:45;7.13;;;6.37;;
18999;SDS011;9633;50.980;13.850;2023-05-15T01:35:25;7.77;;;6.10;;
18999;SDS011;9633;50.980;13.850;2023-05-15T01:37:03;7.17;;;5.90;;
18999;SDS011;9633;50.980;13.850;2023-05-15T01:38:37;6.83;;;6.23;;
18999;SDS011;9633;50.980;13.850;2023-05-15T01:40:13;6.60;;;6.00;;
18999;SDS011;9633;50.980;13.850;2023-05-15T01:41:48;6.00;;;5.50;;
18999;SDS011;9633;50.980;13.850;2023-05-15T01:43:27;7.40;;;6.40;;
18999;SDS011;9633;50.980;13.850;2023-05-15T01:45:03;6.80;;;6.20;;
18999;SDS011;9633;50.980;13.850;2023-05-15T01:46:41;6.93;;;6.30;;
18999;SDS011;9633;50.980;13.850;2023-05-15T01:48:17;7.50;;;6.70;;
18999;SDS011;9633;50.980;13.850;2023-05-15T01:49:52;7.27;;;6.60;;
18999;SDS011;9633;50.980;13.850;2023-05-15T01:51:28;8.27;;;6.63;;
18999;SDS011;9633;50.980;13.850;2023-05-15T01:53:03;7.10;;;6.40;;
18999;SDS011;9633;50.980;13.850;2023-05-15T01:54:37;8.27;;;7.00;;
18999;SDS011;9633;50.980;13.850;2023-05-15T01:56:12;7.17;;;6.47;;
18999;SDS011;9633;50.980;13.850;2023-05-15T01:57:50;6.67;;;5.80;;
18999;SDS011;9633;50.980;13.850;2023-05-15T01:59:23;7.93;;;6.10;;
18999;SDS011;9633;50.980;13.850;2023-05-15T02:00:59;6.57;;;5.63;;
18999;SDS011;9633;50.980;13.850;2023-05-15T02:02:32;6.73;;;6.03;;
18999;SDS011;9633;50.980;13.850;2023-05-15T02:04:06;6.53;;;5.63;;
18999;SDS011;9633;50.980;13.850;2023-05-15T02:05:41;6.80;;;5.73;;
18999;SDS011;9633;50.980;13.850;2023-05-15T02:07:13;6.77;;;6.07;;
18999;SDS011;9633;50.980;13.850;2023-05-15T02:08:47;6.63;;;6.03;;
18999;SDS011;9633;50.980;13.850;2023-05-15T02:10:23;7.10;;;6.50;;
18999;SDS011;9633;50.980;13.850;2023-05-15T02:11:57;6.63;;;5.93;;
18999;SDS011;9633;50.980;13.850;2023-05-15T02:13:33;7.33;;;6.63;;
18999;SDS011;9633;50.980;13.850;2023-05-15T02:15:08;7.77;;;6.10;;
18999;SDS011;9633;50.980;13.850;2023-05-15T02:16:45;7.53;;;6.33;;
18999;SDS011;9633;50.980;13.850;2023-05-15T02:18:18;7.20;;;6.03;;
18999;SDS011;9633;50.980;13.850;2023-05-15T02:19:51;6.27;;;5.67;;
18999;SDS011;9633;50.980;13.850;2023-05-15T02:21:24;6.10;;;5.50;;
18999;SDS011;9633;50.980;13.850;2023-05-15T02:22:57;6.73;;;6.03;;
18999;SDS011;9633;50.980;13.850;2023-05-15T02:24:31;6.03;;;5.43;;
18999;SDS011;9633;50.980;13.850;2023-05-15T02:26:11;6.40;;;5.10;;
18999;SDS011;9633;50.980;13.850;2023-05-15T02:27:56;5.70;;;5.20;;
18999;SDS011;9633;50.980;13.850;2023-05-15T02:29:33;5.77;;;5.27;;
18999;SDS011;9633;50.980;13.850;2023-05-15T02:31:16;6.20;;;5.60;;
18999;SDS011;9633;50.980;13.850;2023-05-15T02:32:58;6.23;;;4.90;;
18999;SDS011;9633;50.980;13.850;2023-05-15T02:34:43;5.80;;;4.67;;
18999;SDS011;9633;50.980;13.850;2023-05-15T02:36:26;6.37;;;4.63;;
18999;SDS011;9633;50.980;13.850;2023-05-15T02:38:05;4.90;;;4.50;;
18999;SDS011;9633;50.980;13.850;2023-05-15T02:39:42;5.03;;;4.53;;
18999;SDS011;9633;50.980;13.850;2023-05-15T02:41:16;5.33;;;4.83;;
18999;SDS011;9633;50.980;13.850;2023-05-15T02:42:51;4.60;;;4.20;;
18999;SDS011;9633;50.980;13.850;2023-05-15T02:44:25;5.27;;;4.30;;
18999;SDS011;9633;50.980;13.850;2023-05-15T02:46:00;6.83;;;4.57;;
18999;SDS011;9633;50.980;13.850;2023-05-15T02:47:35;4.97;;;4.53;;
18999;SDS011;9633;50.980;13.850;2023-05-15T02:49:10;5.33;;;4.83;;
18999;SDS011;9633;50.980;13.850;2023-05-15T02:50:43;6.87;;;4.77;;
18999;SDS011;9633;50.980;13.850;2023-05-15T02:52:16;4.93;;;4.50;;
18999;SDS011;9633;50.980;13.850;2023-05-15T02:53:49;6.70;;;4.90;;
18999;SDS011;9633;50.980;13.850;2023-05-15T02:55:23;4.80;;;4.40;;
18999;SDS011;9633;50.980;13.850;2023-05-15T02:56:55;5.67;;;4.70;;
18999;SDS011;9633;50.980;13.850;2023-05-15T02:58:29;6.03;;;5.43;;
18999;SDS011;9633;50.980;13.850;2023-05-15T03:00:02;6.33;;;5.33;;
18999;SDS011;9633;50.980;13.850;2023-05-15T03:01:36;6.47;;;5.20;;
18999;SDS011;9633;50.980;13.850;2023-05-15T03:03:10;5.43;;;4.93;;
18999;SDS011;9633;50.980;13.850;2023-05-15T03:04:43;4.73;;;4.33;;
18999;SDS011;9633;50.980;13.850;2023-05-15T03:06:18;5.47;;;4.90;;
18999;SDS011;9633;50.980;13.850;2023-05-15T03:07:51;6.03;;;5.10;;
18999;SDS011;9633;50.980;13.850;2023-05-15T03:09:23;5.97;;;4.80;;
18999;SDS011;9633;50.980;13.850;2023-05-15T03:10:56;5.43;;;4.73;;
18999;SDS011;9633;50.980;13.850;2023-05-15T03:12:29;5.50;;;4.97;;
18999;SDS011;9633;50.980;13.850;2023-05-15T03:14:02;5.50;;;5.00;;
18999;SDS011;9633;50.980;13.850;2023-05-15T03:15:35;6.73;;;5.30;;
18999;SDS011;9633;50.980;13.850;2023-05-15T03:17:08;5.97;;;5.10;;
18999;SDS011;9633;50.980;13.850;2023-05-15T03:18:41;5.60;;;5.10;;
18999;SDS011;9633;50.980;13.850;2023-05-15T03:20:16;6.57;;;5.40;;
18999;SDS011;9633;50.980;13.850;2023-05-15T03:21:49;7.37;;;6.20;;
18999;SDS011;9633;50.980;13.850;2023-05-15T03:23:22;6.70;;;6.00;;
18999;SDS011;9633;50.980;13.850;2023-05-15T03:24:55;7.17;;;6.13;;
18999;SDS011;9633;50.980;13.850;2023-05-15T03:26:28;8.83;;;7.37;;
18999;SDS011;9633;50.980;13.850;2023-05-15T03:28:01;7.97;;;7.20;;
18999;SDS011;9633;50.980;13.850;2023-05-15T03:29:34;7.50;;;6.80;;
18999;SDS011;9633;50.980;13.850;2023-05-15T03:31:07;8.27;;;7.43;;
18999;SDS011;9633;50.980;13.850;2023-05-15T03:32:41;7.13;;;6.43;;
18999;SDS011;9633;50.980;13.850;2023-05-15T03:34:13;7.63;;;6.93;;
18999;SDS011;9633;50.980;13.850;2023-05-15T03:35:47;10.37;;;9.07;;
18999;SDS011;9633;50.980;13.850;2023-05-15T03:37:22;12.10;;;9.97;;
18999;SDS011;9633;50.980;13.850;2023-05-15T03:38:55;10.37;;;9.10;;
18999;SDS011;9633;50.980;13.850;2023-05-15T03:40:28;10.33;;;9.03;;
18999;SDS011;9633;50.980;13.850;2023-05-15T03:42:01;10.17;;;8.03;;
18999;SDS011;9633;50.980;13.850;2023-05-15T03:43:34;10.53;;;8.17;;
18999;SDS011;9633;50.980;13.850;2023-05-15T03:45:07;9.40;;;8.40;;
18999;SDS011;9633;50.980;13.850;2023-05-15T03:46:42;8.53;;;7.17;;
18999;SDS011;9633;50.980;13.850;2023-05-15T03:48:15;8.03;;;7.23;;
18999;SDS011;9633;50.980;13.850;2023-05-15T03:49:48;7.90;;;6.67;;
18999;SDS011;9633;50.980;13.850;2023-05-15T03:51:23;7.53;;;6.83;;
18999;SDS011;9633;50.980;13.850;2023-05-15T03:52:57;7.83;;;6.73;;
18999;SDS011;9633;50.980;13.850;2023-05-15T03:54:30;9.03;;;6.47;;
18999;SDS011;9633;50.980;13.850;2023-05-15T03:56:03;8.27;;;6.43;;
18999;SDS011;9633;50.980;13.850;2023-05-15T03:57:36;7.00;;;6.23;;
18999;SDS011;9633;50.980;13.850;2023-05-15T03:59:10;7.43;;;6.53;;
18999;SDS011;9633;50.980;13.850;2023-05-15T04:00:43;8.10;;;6.37;;
18999;SDS011;9633;50.980;13.850;2023-05-15T04:02:16;8.57;;;6.17;;
18999;SDS011;9633;50.980;13.850;2023-05-15T04:03:49;7.37;;;6.30;;
18999;SDS011;9633;50.980;13.850;2023-05-15T04:05:22;6.13;;;5.53;;
18999;SDS011;9633;50.980;13.850;2023-05-15T04:06:58;6.07;;;5.47;;
18999;SDS011;9633;50.980;13.850;2023-05-15T04:08:30;6.37;;;5.77;;
18999;SDS011;9633;50.980;13.850;2023-05-15T04:10:03;6.03;;;5.43;;
18999;SDS011;9633;50.980;13.850;2023-05-15T04:11:37;7.57;;;6.30;;
18999;SDS011;9633;50.980;13.850;2023-05-15T04:13:10;7.00;;;5.97;;
18999;SDS011;9633;50.980;13.850;2023-05-15T04:14:44;7.40;;;6.70;;
18999;SDS011;9633;50.980;13.850;2023-05-15T04:16:17;7.27;;;5.97;;
18999;SDS011;9633;50.980;13.850;2023-05-15T04:17:50;6.70;;;5.93;;
18999;SDS011;9633;50.980;13.850;2023-05-15T04:19:24;7.63;;;6.30;;
18999;SDS011;9633;50.980;13.850;2023-05-15T04:20:57;6.90;;;6.17;;
18999;SDS011;9633;50.980;13.850;2023-05-15T04:22:31;7.20;;;6.50;;
18999;SDS011;9633;50.980;13.850;2023-05-15T04:24:05;7.97;;;5.77;;
18999;SDS011;9633;50.980;13.850;2023-05-15T04:25:38;6.50;;;5.90;;
18999;SDS011;9633;50.980;13.850;2023-05-15T04:27:13;6.30;;;5.70;;
18999;SDS011;9633;50.980;13.850;2023-05-15T04:28:46;6.80;;;6.10;;
18999;SDS011;9633;50.980;13.850;2023-05-15T04:30:33;6.50;;;5.80;;
18999;SDS011;9633;50.980;13.850;2023-05-15T04:32:06;6.27;;;5.50;;
18999;SDS011;9633;50.980;13.850;2023-05-15T04:33:39;10.00;;;5.97;;
18999;SDS011;9633;50.980;13.850;2023-05-15T04:35:12;6.63;;;5.87;;
18999;SDS011;9633;50.980;13.850;2023-05-15T04:36:46;7.00;;;6.30;;
18999;SDS011;9633;50.980;13.850;2023-05-15T04:38:21;7.73;;;6.93;;
18999;SDS011;9633;50.980;13.850;2023-05-15T04:39:54;6.90;;;6.20;;
18999;SDS011;9633;50.980;13.850;2023-05-15T04:41:27;7.17;;;6.20;;
18999;SDS011;9633;50.980;13.850;2023-05-15T04:43:00;7.27;;;6.30;;
18999;SDS011;9633;50.980;13.850;2023-05-15T04:44:34;8.80;;;6.60;;
18999;SDS011;9633;50.980;13.850;2023-05-15T04:46:07;10.63;;;6.80;;
18999;SDS011;9633;50.980;13.850;2023-05-15T04:47:40;23.30;;;7.50;;
18999;SDS011;9633;50.980;13.850;2023-05-15T04:49:14;22.00;;;7.10;;
18999;SDS011;9633;50.980;13.850;2023-05-15T04:50:46;11.93;;;6.60;;
18999;SDS011;9633;50.980;13.850;2023-05-15T04:52:19;7.70;;;6.40;;
18999;SDS011;9633;50.980;13.850;2023-05-15T04:53:54;6.93;;;6.23;;
18999;SDS011;9633;50.980;13.850;2023-05-15T04:55:27;8.53;;;6.40;;
18999;SDS011;9633;50.980;13.850;2023-05-15T04:57:02;7.97;;;7.10;;
18999;SDS011;9633;50.980;13.850;2023-05-15T04:58:35;8.47;;;7.50;;
18999;SDS011;9633;50.980;13.850;2023-05-15T05:00:09;8.57;;;7.77;;
18999;SDS011;9633;50.980;13.850;2023-05-15T05:01:43;8.40;;;7.60;;
18999;SDS011;9633;50.980;13.850;2023-05-15T05:03:16;8.73;;;7.67;;
18999;SDS011;9633;50.980;13.850;2023-05-15T05:04:50;11.50;;;7.83;;
18999;SDS011;9633;50.980;13.850;2023-05-15T05:06:23;8.10;;;7.30;;
18999;SDS011;9633;50.980;13.850;2023-05-15T05:07:57;8.00;;;7.00;;
18999;SDS011;9633;50.980;13.850;2023-05-15T05:09:32;7.73;;;7.03;;
18999;SDS011;9633;50.980;13.850;2023-05-15T05:11:05;7.93;;;7.13;;
18999;SDS011;9633;50.980;13.850;2023-05-15T05:12:38;8.83;;;7.93;;
18999;SDS011;9633;50.980;13.850;2023-05-15T05:14:12;8.57;;;7.73;;
18999;SDS011;9633;50.980;13.850;2023-05-15T05:15:45;8.93;;;7.43;;
18999;SDS011;9633;50.980;13.850;2023-05-15T05:17:19;8.70;;;7.90;;
18999;SDS011;9633;50.980;13.850;2023-05-15T05:18:52;8.43;;;7.50;;
18999;SDS011;9633;50.980;13.850;2023-05-15T05:20:25;10.07;;;7.40;;
18999;SDS011;9633;50.980;13.850;2023-05-15T05:21:58;8.10;;;7.40;;
18999;SDS011;9633;50.980;13.850;2023-05-15T05:23:35;8.33;;;7.37;;
18999;SDS011;9633;50.980;13.850;2023-05-15T05:25:10;7.93;;;7.23;;
18999;SDS011;9633;50.980;13.850;2023-05-15T05:26:43;8.40;;;7.57;;
18999;SDS011;9633;50.980;13.850;2023-05-15T05:28:16;8.90;;;7.30;;
18999;SDS011;9633;50.980;13.850;2023-05-15T05:29:49;8.33;;;7.53;;
18999;SDS011;9633;50.980;13.850;2023-05-15T05:31:23;8.50;;;7.30;;
18999;SDS011;9633;50.980;13.850;2023-05-15T05:32:56;8.40;;;7.27;;
18999;SDS011;9633;50.980;13.850;2023-05-15T05:34:30;7.83;;;7.07;;
18999;SDS011;9633;50.980;13.850;2023-05-15T05:36:03;8.70;;;7.67;;
18999;SDS011;9633;50.980;13.850;2023-05-15T05:37:36;11.77;;;8.53;;
18999;SDS011;9633;50.980;13.850;2023-05-15T05:39:11;10.87;;;8.63;;
18999;SDS011;9633;50.980;13.850;2023-05-15T05:40:46;8.70;;;7.90;;
18999;SDS011;9633;50.980;13.850;2023-05-15T05:42:19;10.00;;;8.17;;
18999;SDS011;9633;50.980;13.850;2023-05-15T05:43:51;8.47;;;7.57;;
18999;SDS011;9633;50.980;13.850;2023-05-15T05:45:24;9.80;;;8.37;;
18999;SDS011;9633;50.980;13.850;2023-05-15T05:46:58;8.93;;;8.00;;
18999;SDS011;9633;50.980;13.850;2023-05-15T05:48:31;11.43;;;7.80;;
18999;SDS011;9633;50.980;13.850;2023-05-15T05:50:04;9.47;;;8.50;;
18999;SDS011;9633;50.980;13.850;2023-05-15T05:51:38;11.37;;;8.03;;
18999;SDS011;9633;50.980;13.850;2023-05-15T05:53:12;9.77;;;7.97;;
18999;SDS011;9633;50.980;13.850;2023-05-15T05:54:45;8.00;;;7.20;;
18999;SDS011;9633;50.980;13.850;2023-05-15T05:56:20;8.13;;;7.33;;
18999;SDS011;9633;50.980;13.850;2023-05-15T05:57:53;8.63;;;7.67;;
18999;SDS011;9633;50.980;13.850;2023-05-15T05:59:26;9.03;;;6.83;;
18999;SDS011;9633;50.980;13.850;2023-05-15T06:01:00;8.20;;;7.40;;
18999;SDS011;9633;50.980;13.850;2023-05-15T06:02:33;7.80;;;7.00;;
18999;SDS011;9633;50.980;13.850;2023-05-15T06:04:06;9.40;;;7.63;;
18999;SDS011;9633;50.980;13.850;2023-05-15T06:05:40;8.27;;;7.43;;
18999;SDS011;9633;50.980;13.850;2023-05-15T06:07:13;10.73;;;7.50;;
18999;SDS011;9633;50.980;13.850;2023-05-15T06:08:47;8.23;;;7.43;;
18999;SDS011;9633;50.980;13.850;2023-05-15T06:10:20;8.60;;;7.47;;
18999;SDS011;9633;50.980;13.850;2023-05-15T06:11:55;10.10;;;7.70;;
18999;SDS011;9633;50.980;13.850;2023-05-15T06:13:28;9.70;;;7.50;;
18999;SDS011;9633;50.980;13.850;2023-05-15T06:15:01;7.43;;;6.57;;
18999;SDS011;9633;50.980;13.850;2023-05-15T06:16:34;9.83;;;7.23;;
18999;SDS011;9633;50.980;13.850;2023-05-15T06:18:07;7.57;;;6.87;;
18999;SDS011;9633;50.980;13.850;2023-05-15T06:19:41;7.00;;;6.30;;
18999;SDS011;9633;50.980;13.850;2023-05-15T06:21:14;6.77;;;6.13;;
18999;SDS011;9633;50.980;13.850;2023-05-15T06:22:47;7.03;;;6.33;;
18999;SDS011;9633;50.980;13.850;2023-05-15T06:24:20;7.20;;;6.50;;
18999;SDS011;9633;50.980;13.850;2023-05-15T06:25:53;7.47;;;5.77;;
18999;SDS011;9633;50.980;13.850;2023-05-15T06:27:27;6.80;;;5.50;;
18999;SDS011;9633;50.980;13.850;2023-05-15T06:29:00;6.07;;;5.47;;
18999;SDS011;9633;50.980;13.850;2023-05-15T06:30:33;6.13;;;5.50;;
18999;SDS011;9633;50.980;13.850;2023-05-15T06:32:07;6.00;;;5.40;;
18999;SDS011;9633;50.980;13.850;2023-05-15T06:33:40;6.50;;;5.80;;
18999;SDS011;9633;50.980;13.850;2023-05-15T06:35:13;6.80;;;5.60;;
18999;SDS011;9633;50.980;13.850;2023-05-15T06:36:46;6.63;;;5.93;;
18999;SDS011;9633;50.980;13.850;2023-05-15T06:38:19;6.50;;;5.37;;
18999;SDS011;9633;50.980;13.850;2023-05-15T06:39:52;4.93;;;4.43;;
18999;SDS011;9633;50.980;13.850;2023-05-15T06:41:26;7.03;;;5.70;;
18999;SDS011;9633;50.980;13.850;2023-05-15T06:43:01;6.87;;;5.10;;
18999;SDS011;9633;50.980;13.850;2023-05-15T06:44:34;6.03;;;5.37;;
18999;SDS011;9633;50.980;13.850;2023-05-15T06:46:07;6.47;;;5.50;;
18999;SDS011;9633;50.980;13.850;2023-05-15T06:47:40;5.73;;;5.23;;
18999;SDS011;9633;50.980;13.850;2023-05-15T06:49:13;7.27;;;6.43;;
18999;SDS011;9633;50.980;13.850;2023-05-15T06:50:47;6.43;;;5.83;;
18999;SDS011;9633;50.980;13.850;2023-05-15T06:52:20;7.20;;;5.80;;
18999;SDS011;9633;50.980;13.850;2023-05-15T06:53:53;8.93;;;6.30;;
18999;SDS011;9633;50.980;13.850;2023-05-15T06:55:26;6.87;;;6.17;;
18999;SDS011;9633;50.980;13.850;2023-05-15T06:56:59;6.67;;;6.07;;
18999;SDS011;9633;50.980;13.850;2023-05-15T06:58:34;7.10;;;6.20;;
18999;SDS011;9633;50.980;13.850;2023-05-15T07:00:07;9.00;;;6.70;;
18999;SDS011;9633;50.980;13.850;2023-05-15T07:01:41;8.93;;;5.53;;
18999;SDS011;9633;50.980;13.850;2023-05-15T07:03:15;7.33;;;5.50;;
18999;SDS011;9633;50.980;13.850;2023-05-15T07:04:48;7.03;;;6.20;;
18999;SDS011;9633;50.980;13.850;2023-05-15T07:06:21;6.83;;;6.20;;
18999;SDS011;9633;50.980;13.850;2023-05-15T07:07:56;8.47;;;6.47;;
18999;SDS011;9633;50.980;13.850;2023-05-15T07:09:29;7.70;;;7.00;;
18999;SDS011;9633;50.980;13.850;2023-05-15T07:11:02;7.77;;;6.83;;
18999;SDS011;9633;50.980;13.850;2023-05-15T07:12:36;7.87;;;7.13;;
18999;SDS011;9633;50.980;13.850;2023-05-15T07:14:10;7.47;;;6.77;;
18999;SDS011;9633;50.980;13.850;2023-05-15T07:15:43;7.93;;;6.77;;
18999;SDS011;9633;50.980;13.850;2023-05-15T07:17:17;7.90;;;6.70;;
18999;SDS011;9633;50.980;13.850;2023-05-15T07:18:50;10.13;;;7.47;;
18999;SDS011;9633;50.980;13.850;2023-05-15T07:20:23;8.07;;;6.57;;
18999;SDS011;9633;50.980;13.850;2023-05-15T07:22:00;7.67;;;6.87;;
18999;SDS011;9633;50.980;13.850;2023-05-15T07:23:34;7.83;;;6.80;;
18999;SDS011;9633;50.980;13.850;2023-05-15T07:25:07;8.90;;;6.70;;
18999;SDS011;9633;50.980;13.850;2023-05-15T07:26:40;7.47;;;6.67;;
18999;SDS011;9633;50.980;13.850;2023-05-15T07:28:27;6.37;;;5.80;;
18999;SDS011;9633;50.980;13.850;2023-05-15T07:30:02;8.00;;;7.20;;
18999;SDS011;9633;50.980;13.850;2023-05-15T07:31:36;7.83;;;7.00;;
18999;SDS011;9633;50.980;13.850;2023-05-15T07:33:11;8.00;;;7.20;;
18999;SDS011;9633;50.980;13.850;2023-05-15T07:34:44;8.60;;;7.70;;
18999;SDS011;9633;50.980;13.850;2023-05-15T07:36:16;9.13;;;7.23;;
18999;SDS011;9633;50.980;13.850;2023-05-15T07:37:49;7.07;;;6.37;;
18999;SDS011;9633;50.980;13.850;2023-05-15T07:39:22;7.60;;;6.77;;
18999;SDS011;9633;50.980;13.850;2023-05-15T07:40:55;8.40;;;7.60;;
18999;SDS011;9633;50.980;13.850;2023-05-15T07:42:28;8.70;;;7.33;;
18999;SDS011;9633;50.980;13.850;2023-05-15T07:44:02;8.83;;;6.93;;
18999;SDS011;9633;50.980;13.850;2023-05-15T07:45:36;7.27;;;6.57;;
18999;SDS011;9633;50.980;13.850;2023-05-15T07:47:09;7.63;;;6.87;;
18999;SDS011;9633;50.980;13.850;2023-05-15T07:48:43;7.00;;;6.30;;
18999;SDS011;9633;50.980;13.850;2023-05-15T07:50:16;7.07;;;6.43;;
18999;SDS011;9633;50.980;13.850;2023-05-15T07:51:49;7.80;;;7.00;;
18999;SDS011;9633;50.980;13.850;2023-05-15T07:53:22;8.00;;;6.43;;
18999;SDS011;9633;50.980;13.850;2023-05-15T07:54:55;8.43;;;7.23;;
18999;SDS011;9633;50.980;13.850;2023-05-15T07:56:28;8.70;;;7.80;;
18999;SDS011;9633;50.980;13.850;2023-05-15T07:58:02;8.03;;;7.23;;
18999;SDS011;9633;50.980;13.850;2023-05-15T07:59:35;8.83;;;7.97;;
18999;SDS011;9633;50.980;13.850;2023-05-15T08:01:09;8.60;;;7.80;;
18999;SDS011;9633;50.980;13.850;2023-05-15T08:02:43;9.37;;;7.30;;
18999;SDS011;9633;50.980;13.850;2023-05-15T08:04:16;9.27;;;7.30;;
18999;SDS011;9633;50.980;13.850;2023-05-15T08:05:49;8.63;;;7.37;;
18999;SDS011;9633;50.980;13.850;2023-05-15T08:07:23;7.50;;;6.80;;
18999;SDS011;9633;50.980;13.850;2023-05-15T08:08:56;9.13;;;6.90;;
18999;SDS011;9633;50.980;13.850;2023-05-15T08:10:29;7.10;;;6.50;;
18999;SDS011;9633;50.980;13.850;2023-05-15T08:12:14;7.03;;;6.43;;
18999;SDS011;9633;50.980;13.850;2023-05-15T08:13:51;7.33;;;6.20;;
18999;SDS011;9633;50.980;13.850;2023-05-15T08:15:24;7.57;;;6.73;;
18999;SDS011;9633;50.980;13.850;2023-05-15T08:16:59;7.87;;;7.07;;
18999;SDS011;9633;50.980;13.850;2023-05-15T08:18:32;7.87;;;6.60;;
18999;SDS011;9633;50.980;13.850;2023-05-15T08:20:05;6.63;;;6.03;;
18999;SDS011;9633;50.980;13.850;2023-05-15T08:21:39;7.47;;;6.70;;
18999;SDS011;9633;50.980;13.850;2023-05-15T08:23:12;7.90;;;6.53;;
18999;SDS011;9633;50.980;13.850;2023-05-15T08:24:46;9.23;;;7.13;;
18999;SDS011;9633;50.980;13.850;2023-05-15T08:26:19;7.77;;;7.07;;
18999;SDS011;9633;50.980;13.850;2023-05-15T08:27:52;8.37;;;7.43;;
18999;SDS011;9633;50.980;13.850;2023-05-15T08:29:25;8.97;;;7.70;;
18999;SDS011;9633;50.980;13.850;2023-05-15T08:30:58;8.37;;;7.60;;
18999;SDS011;9633;50.980;13.850;2023-05-15T08:32:33;8.23;;;7.40;;
18999;SDS011;9633;50.980;13.850;2023-05-15T08:34:06;9.23;;;7.63;;
18999;SDS011;9633;50.980;13.850;2023-05-15T08:35:39;8.50;;;7.60;;
18999;SDS011;9633;50.980;13.850;2023-05-15T08:37:12;10.37;;;8.00;;
18999;SDS011;9633;50.980;13.850;2023-05-15T08:38:45;8.83;;;7.70;;
18999;SDS011;9633;50.980;13.850;2023-05-15T08:40:19;8.47;;;7.67;;
18999;SDS011;9633;50.980;13.850;2023-05-15T08:42:09;9.20;;;8.30;;
18999;SDS011;9633;50.980;13.850;2023-05-15T08:43:48;8.90;;;7.97;;
18999;SDS011;9633;50.980;13.850;2023-05-15T08:45:23;8.57;;;7.53;;
18999;SDS011;9633;50.980;13.850;2023-05-15T08:46:57;8.50;;;7.70;;
18999;SDS011;9633;50.980;13.850;2023-05-15T08:48:32;8.87;;;7.97;;
18999;SDS011;9633;50.980;13.850;2023-05-15T08:50:10;8.30;;;7.53;;
18999;SDS011;9633;50.980;13.850;2023-05-15T08:51:45;8.80;;;7.90;;
18999;SDS011;9633;50.980;13.850;2023-05-15T08:53:19;10.50;;;7.83;;
18999;SDS011;9633;50.980;13.850;2023-05-15T08:54:52;10.53;;;8.00;;
18999;SDS011;9633;50.980;13.850;2023-05-15T08:56:26;8.33;;;7.53;;
18999;SDS011;9633;50.980;13.850;2023-05-15T08:57:59;8.57;;;7.30;;
18999;SDS011;9633;50.980;13.850;2023-05-15T08:59:32;8.70;;;7.80;;
18999;SDS011;9633;50.980;13.850;2023-05-15T09:01:05;9.77;;;8.00;;
18999;SDS011;9633;50.980;13.850;2023-05-15T09:02:40;8.83;;;7.93;;
18999;SDS011;9633;50.980;13.850;2023-05-15T09:04:15;9.00;;;8.10;;
18999;SDS011;9633;50.980;13.850;2023-05-15T09:05:48;9.17;;;8.30;;
18999;SDS011;9633;50.980;13.850;2023-05-15T09:07:23;9.53;;;8.47;;
18999;SDS011;9633;50.980;13.850;2023-05-15T09:08:56;8.83;;;7.90;;
18999;SDS011;9633;50.980;13.850;2023-05-15T09:10:32;13.07;;;8.63;;
18999;SDS011;9633;50.980;13.850;2023-05-15T09:12:06;9.37;;;7.97;;
18999;SDS011;9633;50.980;13.850;2023-05-15T09:13:42;9.87;;;8.87;;
18999;SDS011;9633;50.980;13.850;2023-05-15T09:15:15;9.17;;;8.27;;
18999;SDS011;9633;50.980;13.850;2023-05-15T09:16:52;9.03;;;8.10;;
18999;SDS011;9633;50.980;13.850;2023-05-15T09:18:25;9.80;;;8.90;;
18999;SDS011;9633;50.980;13.850;2023-05-15T09:20:01;9.27;;;8.10;;
18999;SDS011;9633;50.980;13.850;2023-05-15T09:21:37;10.27;;;8.87;;
18999;SDS011;9633;50.980;13.850;2023-05-15T09:23:20;9.53;;;8.57;;
18999;SDS011;9633;50.980;13.850;2023-05-15T09:24:55;12.60;;;8.37;;
18999;SDS011;9633;50.980;13.850;2023-05-15T09:26:28;9.83;;;8.90;;
18999;SDS011;9633;50.980;13.850;2023-05-15T09:28:01;9.50;;;8.37;;